Time;durP1;ratioP1;P1;durP2;ratioP2;P2;SDS_P1;SDS_P2;PMS_P1;PMS_P2;Temp;Humidity;BMP_temperature;BMP_pressure;BME280_temperature;BME280_humidity;BME280_pressure;Samples;Min_cycle;Max_cycle;Signal;HPM_P1;HPM_P2
2023/11/29 00:00:07;;;;;;;8.02;6.43;;;;;;;0.99;78.76;95826.50;4843260;29;20140;-76
2023/11/29 00:02:35;;;;;;;8.00;6.63;;;;;;;0.96;79.51;95829.34;4843089;29;20062;-76
2023/11/29 00:05:08;;;;;;;10.07;7.22;;;;;;;0.96;81.05;95827.63;4843119;29;20493;-77
2023/11/29 00:07:36;;;;;;;6.60;5.85;;;;;;;0.97;79.85;95826.66;4843315;29;20053;-77
2023/11/29 00:10:04;;;;;;;10.98;8.50;;;;;;;0.95;79.01;95817.47;4843153;29;20050;-76
2023/11/29 00:12:31;;;;;;;9.65;8.07;;;;;;;0.98;80.69;95820.56;4843572;29;20088;-75
2023/11/29 00:14:59;;;;;;;10.00;7.88;;;;;;;1.03;81.86;95822.72;4848688;29;20070;-76
2023/11/29 00:17:27;;;;;;;10.55;7.85;;;;;;;1.08;82.59;95823.09;4864018;29;20058;-76
2023/11/29 00:19:54;;;;;;;9.30;7.47;;;;;;;1.10;82.01;95817.81;4864441;29;20057;-76
2023/11/29 00:22:23;;;;;;;10.63;8.30;;;;;;;1.04;80.95;95819.19;4863539;29;20054;-77
2023/11/29 00:24:51;;;;;;;9.77;7.53;;;;;;;1.01;81.19;95816.91;4845557;29;20068;-75
2023/11/29 00:27:18;;;;;;;17.67;8.52;;;;;;;0.97;81.94;95818.94;4844713;29;20137;-76
2023/11/29 00:29:46;;;;;;;8.82;7.18;;;;;;;0.99;81.68;95813.69;4843831;29;20505;-76
2023/11/29 00:32:14;;;;;;;7.57;6.40;;;;;;;0.94;79.40;95810.69;4843349;29;20062;-76
2023/11/29 00:34:41;;;;;;;12.63;7.85;;;;;;;0.91;80.16;95811.00;4842974;29;20141;-76
2023/11/29 00:37:09;;;;;;;10.15;8.15;;;;;;;0.98;82.07;95804.34;4842676;29;20092;-76
2023/11/29 00:39:39;;;;;;;11.82;8.77;;;;;;;1.01;82.00;95811.78;4842757;29;20141;-76
2023/11/29 00:42:07;;;;;;;11.88;9.13;;;;;;;1.06;82.20;95812.16;4842464;29;20141;-77
2023/11/29 00:44:34;;;;;;;19.58;10.73;;;;;;;1.09;83.32;95811.06;4842554;29;20054;-76
2023/11/29 00:47:02;;;;;;;24.02;10.48;;;;;;;1.09;83.77;95805.91;4842498;29;20115;-76
2023/11/29 00:49:29;;;;;;;15.07;10.32;;;;;;;1.09;83.30;95801.56;4842585;29;20146;-76
2023/11/29 00:51:57;;;;;;;11.40;9.32;;;;;;;1.10;83.41;95795.50;4842498;29;20062;-76
2023/11/29 00:54:24;;;;;;;31.63;11.90;;;;;;;1.11;83.15;95802.25;4844017;29;20104;-81
2023/11/29 00:56:53;;;;;;;13.65;10.05;;;;;;;1.13;83.97;95794.41;4845530;29;20149;-84
2023/11/29 00:59:21;;;;;;;11.52;8.73;;;;;;;1.13;83.69;95791.84;4844820;29;20523;-84
2023/11/29 01:01:48;;;;;;;12.45;8.90;;;;;;;1.07;82.44;95793.22;4844265;29;20054;-79
2023/11/29 01:04:16;;;;;;;10.63;8.82;;;;;;;1.03;82.56;95799.59;4842608;29;20053;-80
2023/11/29 01:06:44;;;;;;;14.45;10.40;;;;;;;1.01;82.89;95791.22;4842101;29;20084;-79
2023/11/29 01:09:12;;;;;;;20.48;10.45;;;;;;;1.02;84.51;95791.06;4842167;29;20060;-79
2023/11/29 01:11:39;;;;;;;12.27;9.13;;;;;;;1.02;84.50;95800.53;4842016;29;20049;-78
2023/11/29 01:14:08;;;;;;;16.70;9.77;;;;;;;0.99;84.01;95798.25;4841939;29;20050;-77
2023/11/29 01:16:36;;;;;;;11.30;8.45;;;;;;;0.99;83.93;95795.69;4842278;29;20058;-78
2023/11/29 01:19:04;;;;;;;12.23;8.82;;;;;;;0.97;83.42;95792.47;4841869;29;20089;-77
2023/11/29 01:21:33;;;;;;;10.48;7.60;;;;;;;0.95;82.29;95791.78;4841668;29;20132;-78
2023/11/29 01:24:04;;;;;;;13.65;9.13;;;;;;;0.95;82.45;95795.16;4841801;29;20054;-77
2023/11/29 01:26:32;;;;;;;15.52;9.80;;;;;;;1.00;83.80;95792.16;4842151;29;20144;-77
2023/11/29 01:28:59;;;;;;;20.35;9.82;;;;;;;1.04;84.45;95793.50;4841706;29;20108;-76
2023/11/29 01:31:28;;;;;;;10.82;8.15;;;;;;;1.05;83.96;95802.84;4841845;29;20209;-75
2023/11/29 01:33:57;;;;;;;9.73;7.63;;;;;;;1.04;82.97;95808.91;4841697;29;20102;-76
2023/11/29 01:36:25;;;;;;;11.43;8.25;;;;;;;1.04;82.21;95793.50;4841808;29;20053;-78
2023/11/29 01:38:52;;;;;;;11.32;8.20;;;;;;;1.03;83.33;95791.91;4841417;29;20081;-77
2023/11/29 01:41:20;;;;;;;11.43;9.10;;;;;;;1.00;83.22;95792.16;4841446;29;20144;-76
2023/11/29 01:43:48;;;;;;;10.05;8.40;;;;;;;1.01;82.96;95784.31;4841379;29;20547;-76
2023/11/29 01:46:15;;;;;;;12.80;8.93;;;;;;;1.05;83.88;95787.44;4841301;29;20058;-76
2023/11/29 01:48:44;;;;;;;10.05;7.78;;;;;;;1.05;83.06;95795.13;4841176;29;20054;-76
2023/11/29 01:51:13;;;;;;;19.35;10.23;;;;;;;1.06;83.63;95783.09;4841483;29;20140;-77
2023/11/29 01:53:41;;;;;;;12.88;8.98;;;;;;;1.09;84.82;95785.38;4841594;29;20050;-77
2023/11/29 01:56:09;;;;;;;18.80;10.88;;;;;;;1.11;84.87;95779.13;4841435;29;20050;-76
2023/11/29 01:58:37;;;;;;;8.70;7.20;;;;;;;1.07;83.69;95782.94;4841379;29;20050;-75
2023/11/29 02:01:04;;;;;;;10.25;8.43;;;;;;;1.02;82.62;95790.25;4841210;29;20531;-76
2023/11/29 02:03:32;;;;;;;10.02;8.43;;;;;;;1.02;83.34;95785.13;4841679;29;20137;-76
2023/11/29 02:06:01;;;;;;;17.48;8.35;;;;;;;0.98;84.10;95776.91;4841312;29;20546;-76
2023/11/29 02:08:29;;;;;;;9.52;7.55;;;;;;;0.96;83.71;95785.69;4841432;29;20110;-76
2023/11/29 02:10:57;;;;;;;14.65;7.63;;;;;;;0.95;83.08;95786.66;4841281;29;20054;-76
2023/11/29 02:13:25;;;;;;;12.93;7.53;;;;;;;0.94;82.97;95783.28;4841379;29;20050;-77
2023/11/29 02:15:52;;;;;;;11.38;8.43;;;;;;;0.96;84.05;95791.66;4841126;29;20054;-76
2023/11/29 02:18:20;;;;;;;13.82;8.50;;;;;;;1.01;84.60;95788.66;4841103;29;20082;-76
2023/11/29 02:20:47;;;;;;;22.23;8.63;;;;;;;1.03;85.04;95786.75;4841239;29;20500;-76
2023/11/29 02:23:21;;;;;;;13.23;9.65;;;;;;;1.07;86.77;95782.94;4841172;29;20057;-76
2023/11/29 02:25:50;;;;;;;20.35;9.55;;;;;;;1.09;86.40;95775.91;4843788;29;20057;-76
2023/11/29 02:28:18;;;;;;;8.35;6.95;;;;;;;1.06;85.43;95772.81;4844200;29;20067;-76
2023/11/29 02:30:45;;;;;;;8.40;7.00;;;;;;;1.02;84.62;95774.84;4844324;29;20648;-77
2023/11/29 02:33:13;;;;;;;9.30;7.28;;;;;;;1.00;82.88;95776.75;4844561;29;20145;-78
2023/11/29 02:35:41;;;;;;;10.70;8.23;;;;;;;0.97;82.23;95770.16;4844315;29;20058;-76
2023/11/29 02:38:09;;;;;;;11.93;7.13;;;;;;;0.98;83.12;95774.34;4844163;29;20065;-76
2023/11/29 02:40:37;;;;;;;13.93;8.55;;;;;;;1.00;83.46;95776.75;4843943;29;20050;-77
2023/11/29 02:43:06;;;;;;;8.25;6.70;;;;;;;0.99;81.76;95782.84;4844578;29;20447;-77
2023/11/29 02:45:33;;;;;;;14.52;8.10;;;;;;;0.94;81.67;95778.16;4844157;29;20137;-76
2023/11/29 02:48:01;;;;;;;14.75;7.95;;;;;;;0.92;82.46;95781.78;4844068;29;20436;-76
2023/11/29 02:50:28;;;;;;;7.60;6.30;;;;;;;0.91;81.53;95788.69;4844013;29;20078;-76
2023/11/29 02:52:56;;;;;;;8.63;6.97;;;;;;;0.94;81.64;95787.59;4844016;29;20050;-77
2023/11/29 02:55:24;;;;;;;10.43;7.75;;;;;;;0.98;82.74;95784.63;4843748;29;20520;-76
2023/11/29 02:57:51;;;;;;;11.18;8.70;;;;;;;1.01;82.75;95789.47;4843933;29;20507;-76
2023/11/29 03:00:20;;;;;;;12.30;9.32;;;;;;;1.05;83.38;95784.88;4844027;29;20050;-77
2023/11/29 03:02:48;;;;;;;8.52;6.65;;;;;;;1.03;82.21;95782.44;4844231;29;20053;-76
2023/11/29 03:05:16;;;;;;;10.52;7.40;;;;;;;0.99;81.39;95782.84;4844014;29;20050;-77
2023/11/29 03:07:43;;;;;;;12.15;8.55;;;;;;;0.99;82.05;95777.72;4843489;29;20054;-75
2023/11/29 03:10:11;;;;;;;20.17;10.40;;;;;;;0.98;82.35;95773.53;4843554;29;20049;-76
2023/11/29 03:12:39;;;;;;;13.07;9.00;;;;;;;0.95;82.74;95766.91;4843574;29;20103;-77
2023/11/29 03:15:07;;;;;;;27.88;11.45;;;;;;;0.97;82.67;95764.22;4843642;29;20097;-76
2023/11/29 03:17:37;;;;;;;12.30;9.48;;;;;;;0.93;82.18;95765.44;4843498;29;20100;-75
2023/11/29 03:20:08;;;;;;;16.20;9.48;;;;;;;0.88;81.80;95768.44;4843371;29;20576;-76
2023/11/29 03:22:36;;;;;;;12.85;9.43;;;;;;;0.84;81.35;95774.81;4843454;29;20196;-76
2023/11/29 03:25:04;;;;;;;11.02;7.68;;;;;;;0.77;79.72;95761.72;4843453;29;20062;-76
2023/11/29 03:27:31;;;;;;;11.73;8.55;;;;;;;0.70;79.31;95765.81;4843239;29;20159;-77
2023/11/29 03:29:59;;;;;;;12.77;9.15;;;;;;;0.68;80.89;95761.75;4843669;29;20056;-77
2023/11/29 03:32:27;;;;;;;12.00;8.70;;;;;;;0.69;81.09;95758.25;4843263;29;20081;-76
2023/11/29 03:34:56;;;;;;;13.35;9.85;;;;;;;0.70;82.34;95759.84;4844962;29;20062;-76
2023/11/29 03:37:23;;;;;;;14.50;10.52;;;;;;;0.74;82.15;95762.00;4847028;29;20424;-76
2023/11/29 03:39:51;;;;;;;14.85;10.60;;;;;;;0.75;82.09;95761.06;4844986;29;20056;-76
2023/11/29 03:42:18;;;;;;;15.60;10.85;;;;;;;0.71;81.23;95762.28;4844508;29;20060;-78
2023/11/29 03:44:46;;;;;;;14.35;9.80;;;;;;;0.65;80.61;95760.28;4844217;29;20440;-78
2023/11/29 03:47:13;;;;;;;14.30;10.52;;;;;;;0.60;79.92;95752.19;4844026;29;20058;-75
2023/11/29 03:49:41;;;;;;;13.60;9.70;;;;;;;0.57;79.48;95750.72;4843365;29;20049;-77
2023/11/29 03:52:10;;;;;;;15.02;10.57;;;;;;;0.54;80.55;95752.75;4843157;29;20064;-76
2023/11/29 03:54:37;;;;;;;18.75;11.25;;;;;;;0.56;81.64;95748.31;4843043;29;20057;-76
2023/11/29 03:57:05;;;;;;;15.10;10.57;;;;;;;0.56;81.52;95751.66;4843244;29;20054;-77
2023/11/29 03:59:35;;;;;;;16.15;11.57;;;;;;;0.58;81.17;95748.97;4842980;29;20138;-76
2023/11/29 04:02:02;;;;;;;32.45;13.05;;;;;;;0.62;82.38;95745.19;4843022;29;20093;-76
2023/11/29 04:04:30;;;;;;;38.92;13.60;;;;;;;0.69;83.18;95747.97;4842812;29;20140;-76
2023/11/29 04:07:01;;;;;;;39.92;15.68;;;;;;;0.69;84.23;95746.22;4842774;29;20089;-76
2023/11/29 04:09:30;;;;;;;35.70;15.93;;;;;;;0.74;84.42;95745.78;4842861;29;20132;-76
2023/11/29 04:11:58;;;;;;;28.35;14.45;;;;;;;0.72;84.06;95743.38;4842786;29;20504;-76
2023/11/29 04:14:26;;;;;;;42.05;14.10;;;;;;;0.73;84.07;95746.75;4842531;29;20054;-77
2023/11/29 04:16:54;;;;;;;18.15;12.20;;;;;;;0.75;83.78;95748.22;4842445;29;20563;-76
2023/11/29 04:19:21;;;;;;;19.25;12.52;;;;;;;0.77;83.18;95741.19;4842326;29;20481;-75
2023/11/29 04:21:49;;;;;;;16.77;11.48;;;;;;;0.79;83.56;95741.06;4841892;29;20056;-77
2023/11/29 04:24:16;;;;;;;33.97;13.82;;;;;;;0.81;84.12;95747.66;4842037;29;20056;-76
2023/11/29 04:26:45;;;;;;;63.72;16.00;;;;;;;0.86;85.24;95739.53;4842625;29;20058;-76
2023/11/29 04:29:13;;;;;;;66.88;16.40;;;;;;;0.89;86.09;95738.44;4841968;29;20088;-76
2023/11/29 04:31:41;;;;;;;17.65;12.07;;;;;;;0.91;85.71;95737.34;4841890;29;20050;-76
2023/11/29 04:34:08;;;;;;;18.63;12.23;;;;;;;0.94;85.58;95733.66;4842827;29;20058;-75
2023/11/29 04:36:54;;;;;;;14.30;10.02;;;;;;;0.91;83.56;95733.97;4842654;29;20140;-75
2023/11/29 04:39:21;;;;;;;16.00;10.60;;;;;;;0.88;82.57;95729.13;4842850;29;20061;-76
2023/11/29 04:41:50;;;;;;;15.80;10.20;;;;;;;0.87;82.41;95722.34;4859509;29;20050;-79
2023/11/29 04:44:18;;;;;;;16.25;11.05;;;;;;;0.87;82.88;95724.94;4864276;29;20078;-76
2023/11/29 04:46:46;;;;;;;30.30;11.40;;;;;;;0.88;83.77;95718.84;4863287;29;20041;-77
2023/11/29 04:49:13;;;;;;;14.05;9.63;;;;;;;0.87;83.24;95718.03;4845662;29;20061;-76
2023/11/29 04:51:41;;;;;;;13.20;8.50;;;;;;;0.85;81.27;95714.78;4843325;29;20137;-75
2023/11/29 04:54:08;;;;;;;16.20;10.57;;;;;;;0.85;81.61;95719.94;4842650;29;20067;-74
2023/11/29 04:56:36;;;;;;;13.30;9.43;;;;;;;0.91;82.40;95714.22;4842642;29;20049;-75
2023/11/29 04:59:05;;;;;;;12.32;8.70;;;;;;;0.89;80.62;95707.63;4841970;29;20057;-75
2023/11/29 05:01:33;;;;;;;16.80;9.60;;;;;;;0.91;81.16;95705.72;4842005;29;20049;-76
2023/11/29 05:04:00;;;;;;;13.25;8.65;;;;;;;0.91;82.01;95705.72;4841873;29;20474;-76
2023/11/29 05:06:28;;;;;;;14.30;8.75;;;;;;;0.92;82.25;95703.03;4841502;29;20064;-76
2023/11/29 05:08:57;;;;;;;11.32;7.38;;;;;;;0.93;82.05;95696.91;4823758;29;20588;-76
2023/11/29 05:11:25;;;;;;;12.02;7.70;;;;;;;0.92;82.03;95704.75;4824102;29;20055;-75
2023/11/29 05:13:53;;;;;;;11.20;7.65;;;;;;;0.95;82.62;95707.06;4827513;29;20050;-76
2023/11/29 05:16:20;;;;;;;9.90;7.50;;;;;;;0.96;82.23;95706.09;4841275;29;20520;-74
2023/11/29 05:18:48;;;;;;;11.90;7.78;;;;;;;0.94;81.66;95705.41;4841655;29;20113;-75
2023/11/29 05:21:17;;;;;;;12.82;8.07;;;;;;;0.95;82.47;95709.63;4841612;29;20054;-76
2023/11/29 05:23:44;;;;;;;16.73;9.48;;;;;;;0.98;83.45;95711.88;4842969;29;20122;-75
2023/11/29 05:26:12;;;;;;;9.13;6.53;;;;;;;0.95;82.56;95714.75;4842192;29;20486;-75
2023/11/29 05:28:40;;;;;;;9.82;6.82;;;;;;;0.94;81.95;95715.69;4842074;29;20053;-76
2023/11/29 05:31:07;;;;;;;17.38;7.47;;;;;;;0.92;81.13;95707.31;4841787;29;20054;-76
2023/11/29 05:33:36;;;;;;;12.68;7.63;;;;;;;0.95;81.66;95714.75;4842047;29;20148;-75
2023/11/29 05:36:05;;;;;;;17.23;7.97;;;;;;;1.00;82.82;95715.13;4842035;29;20110;-76
2023/11/29 05:38:33;;;;;;;11.45;7.30;;;;;;;1.01;83.06;95715.00;4841898;29;20736;-75
2023/11/29 05:41:01;;;;;;;9.20;6.80;;;;;;;1.02;81.72;95715.78;4841500;29;20054;-74
2023/11/29 05:43:28;;;;;;;13.80;8.15;;;;;;;1.01;81.54;95711.63;4841221;29;20050;-76
2023/11/29 05:45:56;;;;;;;39.85;10.85;;;;;;;1.01;83.13;95712.41;4841621;29;20050;-76
2023/11/29 05:48:23;;;;;;;11.73;7.22;;;;;;;1.02;83.77;95713.22;4841628;29;20057;-75
2023/11/29 05:50:52;;;;;;;23.25;8.00;;;;;;;1.01;83.68;95711.63;4859031;29;20038;-78
2023/11/29 05:53:23;;;;;;;23.75;9.55;;;;;;;1.01;84.37;95715.00;4864100;29;20110;-80
2023/11/29 05:55:50;;;;;;;11.45;7.78;;;;;;;1.02;85.08;95719.16;4862493;29;20053;-79
2023/11/29 05:58:18;;;;;;;11.32;7.25;;;;;;;1.02;83.98;95726.06;4858324;29;20061;-79
2023/11/29 06:00:45;;;;;;;12.25;7.63;;;;;;;1.00;83.28;95720.25;4858954;29;20132;-76
2023/11/29 06:03:13;;;;;;;11.52;7.60;;;;;;;1.00;83.35;95735.66;4851538;29;20085;-78
2023/11/29 06:05:41;;;;;;;10.13;6.78;;;;;;;0.99;82.12;95737.44;4846894;29;20462;-76
2023/11/29 06:08:09;;;;;;;30.77;8.95;;;;;;;1.00;83.07;95743.38;4850085;29;20401;-76
2023/11/29 06:10:37;;;;;;;8.80;6.70;;;;;;;1.01;82.02;95737.31;4846196;29;20503;-76
2023/11/29 06:13:05;;;;;;;16.98;9.05;;;;;;;1.00;81.91;95749.31;4845201;29;20627;-75
2023/11/29 06:15:32;;;;;;;26.88;10.25;;;;;;;1.02;83.52;95734.56;4845551;29;20061;-78
2023/11/29 06:18:01;;;;;;;10.35;7.40;;;;;;;0.99;83.04;95729.72;4845608;29;20054;-76
2023/11/29 06:20:28;;;;;;;11.35;7.15;;;;;;;0.96;82.16;95727.47;4845364;29;20106;-73
2023/11/29 06:22:57;;;;;;;11.45;7.40;;;;;;;0.99;82.59;95734.06;4845137;29;20129;-76
2023/11/29 06:25:26;;;;;;;18.80;8.38;;;;;;;1.01;83.44;95727.81;4844828;29;20092;-76
2023/11/29 06:27:53;;;;;;;10.38;6.68;;;;;;;1.01;82.32;95732.16;4839793;29;20136;-75
2023/11/29 06:30:21;;;;;;;11.30;6.88;;;;;;;0.96;79.78;95724.06;4826911;29;20058;-75
2023/11/29 06:32:49;;;;;;;12.07;7.55;;;;;;;0.91;79.96;95721.13;4843344;29;20053;-77
2023/11/29 06:35:17;;;;;;;9.98;7.07;;;;;;;0.92;80.19;95718.44;4844885;29;20085;-76
2023/11/29 06:37:47;;;;;;;10.75;7.20;;;;;;;0.92;80.18;95712.47;4849337;29;20121;-76
2023/11/29 06:40:23;;;;;;;16.58;8.60;;;;;;;0.96;81.44;95718.94;4844723;29;20061;-75
2023/11/29 06:42:52;;;;;;;32.65;9.63;;;;;;;1.00;82.88;95715.13;4831914;29;20085;-76
2023/11/29 06:45:20;;;;;;;9.70;6.95;;;;;;;1.03;81.60;95714.84;4833792;29;20050;-75
2023/11/29 06:47:48;;;;;;;9.48;7.03;;;;;;;1.02;80.50;95708.09;4843973;29;20068;-75
2023/11/29 06:50:16;;;;;;;11.75;7.18;;;;;;;1.06;81.52;95713.75;4842746;29;20081;-77
2023/11/29 06:52:45;;;;;;;12.60;7.65;;;;;;;1.10;82.95;95710.75;4849281;29;20058;-77
2023/11/29 06:55:14;;;;;;;14.02;8.57;;;;;;;1.15;83.35;95707.75;4825994;29;20152;-76
2023/11/29 06:57:43;;;;;;;10.57;7.18;;;;;;;1.14;81.67;95709.50;4836380;29;20145;-77
2023/11/29 07:00:16;;;;;;;20.38;9.48;;;;;;;1.15;82.52;95708.53;4843840;29;20053;-76
2023/11/29 07:02:44;;;;;;;10.93;6.90;;;;;;;1.20;83.36;95708.94;4830170;29;20558;-75
2023/11/29 07:05:18;;;;;;;10.55;7.68;;;;;;;1.20;80.27;95711.50;4831053;29;20107;-79
2023/11/29 07:07:50;;;;;;;12.32;7.82;;;;;;;1.21;80.89;95709.72;4829329;29;20107;-77
2023/11/29 07:10:21;;;;;;;10.35;6.90;;;;;;;1.22;81.27;95714.75;4830643;29;20058;-77
2023/11/29 07:12:49;;;;;;;16.13;8.73;;;;;;;1.25;81.31;95713.63;4834509;29;20045;-75
2023/11/29 07:15:18;;;;;;;9.30;6.95;;;;;;;1.28;80.52;95702.25;4843101;29;20054;-74
2023/11/29 07:17:45;;;;;;;9.73;7.07;;;;;;;1.28;78.96;95712.53;4835969;29;20077;-77
2023/11/29 07:20:13;;;;;;;11.93;7.82;;;;;;;1.30;79.93;95708.06;4837892;29;20058;-77
2023/11/29 07:22:41;;;;;;;8.95;6.38;;;;;;;1.32;80.23;95703.56;4828158;29;20092;-75
2023/11/29 07:25:09;;;;;;;8.63;6.65;;;;;;;1.31;80.02;95709.66;4832686;29;20061;-76
2023/11/29 07:27:37;;;;;;;9.65;7.03;;;;;;;1.33;80.47;95713.69;4838329;29;20377;-75
2023/11/29 07:30:06;;;;;;;11.60;7.38;;;;;;;1.37;81.31;95707.31;4831899;29;20049;-77
2023/11/29 07:32:35;;;;;;;9.68;6.93;;;;;;;1.42;82.46;95709.44;4836046;29;20711;-76
2023/11/29 07:35:03;;;;;;;8.75;6.63;;;;;;;1.45;81.43;95706.59;4829231;29;20056;-76
2023/11/29 07:37:30;;;;;;;9.93;7.45;;;;;;;1.48;81.20;95713.19;4834635;29;20054;-77
2023/11/29 07:39:58;;;;;;;10.50;7.00;;;;;;;1.48;81.68;95711.41;4835929;29;20572;-76
2023/11/29 07:42:26;;;;;;;9.75;6.82;;;;;;;1.47;82.22;95709.81;4842633;29;20110;-78
2023/11/29 07:44:53;;;;;;;10.00;7.07;;;;;;;1.50;82.27;95709.50;4839486;29;20054;-76
2023/11/29 07:47:21;;;;;;;9.75;6.75;;;;;;;1.53;81.98;95714.38;4843349;29;20057;-78
2023/11/29 07:49:50;;;;;;;7.85;5.93;;;;;;;1.53;80.62;95716.94;4835663;29;20058;-77
2023/11/29 07:52:18;;;;;;;8.82;5.45;;;;;;;1.53;80.17;95722.09;4843863;29;20579;-76
2023/11/29 07:54:45;;;;;;;10.32;7.05;;;;;;;1.56;80.68;95715.84;4842692;29;20070;-76
2023/11/29 07:57:13;;;;;;;7.38;5.70;;;;;;;1.58;79.83;95713.94;4842613;29;20133;-76
2023/11/29 07:59:41;;;;;;;9.48;6.65;;;;;;;1.60;80.70;95719.72;4843201;29;20160;-76
2023/11/29 08:02:08;;;;;;;8.15;6.35;;;;;;;1.64;81.49;95715.91;4842257;29;20099;-77
2023/11/29 08:04:36;;;;;;;9.48;6.95;;;;;;;1.66;81.63;95711.41;4842989;29;20163;-77
2023/11/29 08:07:05;;;;;;;9.60;5.88;;;;;;;1.64;80.58;95703.88;4843613;29;20050;-76
2023/11/29 08:09:33;;;;;;;9.38;6.78;;;;;;;1.63;79.37;95696.28;4848463;29;20132;-78
2023/11/29 08:12:00;;;;;;;7.50;5.22;;;;;;;1.59;77.97;95705.25;4842660;29;20081;-78
2023/11/29 08:14:28;;;;;;;6.85;4.97;;;;;;;1.57;78.42;95692.53;4844846;29;20058;-76
2023/11/29 08:16:55;;;;;;;6.47;5.35;;;;;;;1.59;77.99;95700.09;4849333;29;20054;-78
2023/11/29 08:19:28;;;;;;;6.75;5.53;;;;;;;1.58;77.15;95699.31;4843234;29;20058;-79
2023/11/29 08:22:01;;;;;;;8.05;5.55;;;;;;;1.58;77.83;95708.78;4845612;29;20145;-76
2023/11/29 08:24:30;;;;;;;11.13;5.20;;;;;;;1.58;77.58;95716.50;4846437;29;20081;-76
2023/11/29 08:27:03;;;;;;;6.53;4.82;;;;;;;1.56;77.31;95711.50;4843692;29;20053;-77
2023/11/29 08:29:30;;;;;;;7.20;5.60;;;;;;;1.59;77.50;95715.53;4842823;29;20046;-79
2023/11/29 08:31:58;;;;;;;7.55;5.72;;;;;;;1.62;79.18;95716.06;4827508;29;20131;-78
2023/11/29 08:34:25;;;;;;;7.85;5.72;;;;;;;1.66;78.76;95711.41;4833147;29;20095;-78
2023/11/29 08:36:53;;;;;;;6.13;4.60;;;;;;;1.63;77.18;95702.22;4837315;29;20064;-76
2023/11/29 08:39:21;;;;;;;7.10;5.53;;;;;;;1.69;77.34;95706.00;4836143;29;20167;-76
2023/11/29 08:41:50;;;;;;;9.48;6.60;;;;;;;1.77;79.37;95707.81;4829261;29;20484;-75
2023/11/29 08:44:18;;;;;;;8.02;6.70;;;;;;;1.84;78.45;95708.84;4825174;29;20140;-76
2023/11/29 08:46:45;;;;;;;9.10;6.95;;;;;;;1.87;77.25;95703.38;4837560;29;20053;-76
2023/11/29 08:49:13;;;;;;;8.10;5.70;;;;;;;1.91;76.25;95693.63;4833637;29;20058;-77
2023/11/29 08:51:41;;;;;;;11.63;7.80;;;;;;;1.91;76.27;95694.41;4824933;29;20046;-76
2023/11/29 08:54:08;;;;;;;10.82;6.57;;;;;;;1.90;75.15;95692.00;4824864;29;20087;-76
2023/11/29 08:56:36;;;;;;;9.43;6.88;;;;;;;1.81;73.99;95698.84;4830811;29;20057;-76
2023/11/29 08:59:05;;;;;;;11.32;6.53;;;;;;;1.74;72.99;95706.34;4826626;29;20403;-76
2023/11/29 09:01:33;;;;;;;13.48;8.38;;;;;;;1.72;74.43;95704.88;4837294;29;20053;-76
2023/11/29 09:04:01;;;;;;;11.48;7.57;;;;;;;1.74;74.37;95706.34;4854444;29;20058;-76
2023/11/29 09:06:29;;;;;;;11.20;8.13;;;;;;;1.76;74.96;95709.56;4846127;29;20044;-76
2023/11/29 09:08:58;;;;;;;10.32;7.30;;;;;;;1.75;74.32;95705.41;4853099;29;20053;-77
2023/11/29 09:11:25;;;;;;;10.65;7.85;;;;;;;1.81;74.98;95703.97;4842861;29;20074;-76
2023/11/29 09:13:52;;;;;;;10.88;7.97;;;;;;;1.88;74.99;95697.31;4841557;29;20713;-77
2023/11/29 09:16:21;;;;;;;12.40;8.13;;;;;;;1.92;73.80;95706.31;4841803;29;20451;-78
2023/11/29 09:18:49;;;;;;;13.10;8.30;;;;;;;2.00;74.45;95698.66;4843492;29;20058;-77
2023/11/29 09:21:17;;;;;;;9.18;6.22;;;;;;;2.08;73.95;95703.06;4842791;29;20081;-76
2023/11/29 09:23:44;;;;;;;9.48;7.15;;;;;;;2.12;74.39;95700.97;4842812;29;20050;-77
2023/11/29 09:26:14;;;;;;;11.18;6.93;;;;;;;2.15;72.59;95703.25;4836029;29;20486;-76
2023/11/29 09:28:41;;;;;;;9.95;6.13;;;;;;;2.15;72.67;95695.53;4826996;29;20137;-77
2023/11/29 09:31:12;;;;;;;10.35;6.43;;;;;;;2.12;71.34;95699.22;4841433;29;20491;-77
2023/11/29 09:33:42;;;;;;;7.82;6.53;;;;;;;2.13;71.50;95694.88;4828889;29;20058;-77
2023/11/29 09:36:10;;;;;;;10.55;6.20;;;;;;;2.22;72.31;95702.50;4824615;29;20521;-77
2023/11/29 09:38:39;;;;;;;11.75;6.45;;;;;;;2.34;71.70;95692.75;4824277;29;20093;-77
2023/11/29 09:41:07;;;;;;;9.77;6.90;;;;;;;2.49;73.88;95700.69;4826125;29;20057;-77
2023/11/29 09:43:35;;;;;;;8.77;6.55;;;;;;;2.63;72.87;95694.19;4838327;29;20060;-77
2023/11/29 09:46:02;;;;;;;8.18;6.07;;;;;;;2.76;72.38;95694.56;4826538;29;20141;-78
2023/11/29 09:48:30;;;;;;;6.88;5.13;;;;;;;2.89;71.89;95699.28;4826760;29;20065;-75
2023/11/29 09:50:59;;;;;;;7.90;4.80;;;;;;;2.95;72.71;95692.69;4825020;29;20096;-78
2023/11/29 09:53:27;;;;;;;4.68;4.07;;;;;;;3.01;71.60;95694.63;4824935;29;20069;-77
2023/11/29 09:55:56;;;;;;;5.13;4.22;;;;;;;3.04;71.98;95689.97;4827435;29;20077;-77
2023/11/29 09:58:27;;;;;;;5.03;3.22;;;;;;;3.04;69.87;95684.00;4842011;29;20049;-76
2023/11/29 10:00:55;;;;;;;6.07;4.03;;;;;;;3.08;70.24;95682.72;4830731;29;20050;-76
2023/11/29 10:03:22;;;;;;;4.22;3.50;;;;;;;3.15;69.71;95663.13;4842335;29;20054;-77
2023/11/29 10:05:50;;;;;;;4.72;3.60;;;;;;;3.21;68.06;95670.19;4842000;29;20054;-76
2023/11/29 10:08:20;;;;;;;5.40;3.97;;;;;;;3.26;68.75;95670.53;4836466;29;20078;-76
2023/11/29 10:10:47;;;;;;;5.80;4.57;;;;;;;3.38;70.50;95665.06;4834792;29;20579;-77
2023/11/29 10:13:16;;;;;;;6.45;4.05;;;;;;;3.49;70.70;95664.75;4833666;29;20505;-76
2023/11/29 10:15:47;;;;;;;4.97;4.40;;;;;;;3.59;72.20;95674.91;4837744;29;20046;-76
2023/11/29 10:18:19;;;;;;;5.95;4.80;;;;;;;3.69;72.92;95655.72;4841898;29;20187;-76
2023/11/29 10:20:48;;;;;;;9.02;4.20;;;;;;;3.82;70.96;95650.06;4833473;29;20519;-77
2023/11/29 10:23:34;;;;;;;5.05;4.20;;;;;;;3.91;69.78;95643.13;4842070;29;20425;-77
2023/11/29 10:26:02;;;;;;;4.35;3.47;;;;;;;4.07;69.49;95639.72;4838937;29;20064;-77
2023/11/29 10:28:31;;;;;;;6.07;3.53;;;;;;;4.25;70.71;95639.50;4841100;29;20466;-77
2023/11/29 10:30:59;;;;;;;4.15;3.40;;;;;;;4.46;70.20;95632.03;4842262;29;20500;-77
2023/11/29 10:33:27;;;;;;;5.85;3.30;;;;;;;4.67;68.22;95633.22;4846205;29;20050;-78
2023/11/29 10:35:55;;;;;;;6.00;3.60;;;;;;;4.85;68.19;95641.53;4855506;29;20066;-77
2023/11/29 10:38:25;;;;;;;3.67;2.80;;;;;;;4.99;65.07;95636.63;4852517;29;20045;-77
2023/11/29 10:40:57;;;;;;;4.50;2.65;;;;;;;5.07;65.00;95628.81;4852056;29;20050;-77
2023/11/29 10:43:25;;;;;;;3.85;2.17;;;;;;;5.08;66.09;95633.00;4844681;29;20185;-78
2023/11/29 10:45:58;;;;;;;3.72;2.42;;;;;;;5.06;66.48;95638.34;4842211;29;20057;-78
2023/11/29 10:48:30;;;;;;;2.80;2.60;;;;;;;5.09;67.71;95645.75;4839981;29;20069;-76
2023/11/29 10:50:58;;;;;;;;;;;;;;;5.10;65.40;95647.38;4845928;29;20302;-76
2023/11/29 10:53:31;;;;;;;3.35;2.47;;;;;;;5.17;65.37;95639.75;4854370;29;19925;-77
2023/11/29 10:56:02;;;;;;;3.20;2.90;;;;;;;5.25;66.25;95647.44;4840792;29;20065;-76
2023/11/29 10:58:39;;;;;;;3.30;3.00;;;;;;;5.32;67.23;95653.53;4828169;29;20149;-76
2023/11/29 11:01:09;;;;;;;3.75;3.08;;;;;;;5.27;65.13;95655.84;4833973;29;20106;-76
2023/11/29 11:03:42;;;;;;;3.40;2.97;;;;;;;5.22;64.77;95652.94;4830614;29;20054;-76
2023/11/29 11:06:39;;;;;;;2.83;2.50;;;;;;;5.11;62.10;95645.59;4843478;29;20517;-76
2023/11/29 11:09:30;;;;;;;3.38;3.08;;;;;;;4.95;64.84;95652.47;4841412;29;20132;-76
2023/11/29 11:11:59;;;;;;;3.47;3.00;;;;;;;4.82;65.75;95644.47;4833665;29;20089;-77
2023/11/29 11:14:30;;;;;;;3.85;3.45;;;;;;;4.71;65.44;95644.84;4832036;29;20054;-76
2023/11/29 11:17:00;;;;;;;4.22;3.25;;;;;;;4.63;67.72;95639.69;4825692;29;20083;-76
2023/11/29 11:19:29;;;;;;;3.88;3.47;;;;;;;4.59;68.54;95641.84;4841122;29;20097;-76
2023/11/29 11:21:57;;;;;;;5.13;3.95;;;;;;;4.58;69.02;95644.56;4843653;29;20057;-75
2023/11/29 11:25:01;;;;;;;4.22;3.58;;;;;;;4.49;66.30;95647.19;4843741;29;20061;-76
2023/11/29 11:27:35;;;;;;;4.30;3.88;;;;;;;4.37;68.27;95643.34;4843652;29;20129;-75
2023/11/29 11:30:05;;;;;;;4.88;4.13;;;;;;;4.28;70.08;95634.00;4842997;29;20129;-75
2023/11/29 11:32:49;;;;;;;4.10;3.70;;;;;;;4.18;66.50;95628.25;4825114;29;20062;-75
2023/11/29 11:35:36;;;;;;;5.18;4.68;;;;;;;4.09;72.25;95630.84;4825443;29;20436;-75
2023/11/29 11:38:06;;;;;;;5.40;4.35;;;;;;;4.07;72.22;95631.97;4901750;23;20053;-79
2023/11/29 11:40:36;;;;;;;4.35;3.78;;;;;;;3.97;69.62;95618.44;4869002;29;20113;-79
2023/11/29 11:43:07;;;;;;;4.03;3.65;;;;;;;3.86;69.95;95617.03;4868428;29;20056;-82